Bookmark and Share
Track history (hours):
 

Yueyangdongyu16005

Last reported at 2014-Mar-02 02:20 UTC. Time now 2014-Apr-19 02:12 UTC.
Position N 21°56' E 113°49'.
Warning: this ship's position is 47 days out of date.

Length 33 m.

Type: Fishing. MMSI: 412476783.

NotesDate/timePositionNaut miles runAvg speedWind from/ knotsBaromVisibWave heightAir tempDewpointWater temp
2014-Mar-02 02:20N 21°56' E 113°49'6 7.8
2014-Mar-02 01:31N 22°02' E 113°46'7 7.5
2014-Mar-02 00:33N 22°07' E 113°41'8 7.1
2014-Mar-01 23:30N 22°14' E 113°39'  
2014-Feb-26 19:28N 22°17' E 113°35'0 0.0
2014-Feb-26 18:28N 22°17' E 113°35'0 0.0
2014-Feb-26 17:28N 22°17' E 113°35'0 0.0
2014-Feb-26 16:15N 22°17' E 113°35'0 0.0
2014-Feb-26 15:33N 22°17' E 113°35'0 0.0
2014-Feb-26 14:32N 22°17' E 113°35'0 0.0
2014-Feb-26 13:32N 22°17' E 113°35'0 0.0
2014-Feb-26 12:32N 22°17' E 113°35'0 0.0
2014-Feb-26 11:29N 22°17' E 113°35'0 0.0
2014-Feb-26 10:28N 22°17' E 113°35'0 0.0
2014-Feb-26 09:25N 22°17' E 113°35'0 0.0
2014-Feb-26 08:31N 22°17' E 113°35'0 0.0
2014-Feb-26 07:09N 22°17' E 113°35'0 0.0
2014-Feb-26 06:18N 22°17' E 113°35'0 0.0
2014-Feb-26 05:24N 22°17' E 113°35'0 0.0
2014-Feb-26 04:30N 22°17' E 113°35'0 0.1
2014-Feb-26 03:22N 22°17' E 113°35'3 3.8
2014-Feb-26 02:33N 22°16' E 113°38'8 7.8
2014-Feb-26 01:31N 22°08' E 113°39'10 8.8
2014-Feb-26 00:24N 21°58' E 113°43'  

Dump ship's entire track history

sailing weather and tide predictions

Yueyangdongyu16005 — 0016005 — position and weather